This is the latest recevied weather packets stored in our database for station/object DH1NAI-6. If no packets are shown the sender has not sent any weather packets the latest 10 day(s).
| Time | Temp. | Humidity | Pressure | Rain* | Wind** | Luminosity | Snow |
|---|---|---|---|---|---|---|---|
| 1788031555 | 16.11° C | 84% | 1013.3 hPa | 0 mm | - | 0 W/m² | - |
| 1788030931 | 16.11° C | 83% | 1013.2 hPa | 0 mm | - | 0 W/m² | - |
| 1788030323 | 16.11° C | 83% | 1013.2 hPa | 0 mm | - | 0 W/m² | - |
| 1788029699 | 16.11° C | 83% | 1013 hPa | 0 mm | - | 0 W/m² | - |
| 1788029075 | 16.11° C | 83% | 1013.2 hPa | 0 mm | - | 0 W/m² | - |
| 1788028467 | 16.11° C | 83% | 1013.4 hPa | 0 mm | - | 0 W/m² | - |
| 1788027859 | 16.11° C | 83% | 1013 hPa | 0 mm | - | 0 W/m² | - |
| 1788027236 | 15.56° C | 86% | 1013.1 hPa | 0 mm | - | 0 W/m² | - |
| 1788026627 | 15° C | 90% | 1012.9 hPa | 0 mm | - | 0 W/m² | - |
| 1788026019 | 15° C | 91% | 1013.1 hPa | 0 mm | - | 1 W/m² | - |
| 1788025411 | 15.56° C | 88% | 1013.1 hPa | 0 mm | - | 3 W/m² | - |
| 1788024803 | 16.11° C | 86% | 1013 hPa | 0 mm | - | 5 W/m² | - |
| 1788024195 | 17.22° C | 81% | 1012.8 hPa | 0 mm | - | 8 W/m² | - |
| 1788023590 | 17.78° C | 76% | 1013.1 hPa | 0 mm | - | 8 W/m² | - |
| 1788022979 | 18.33° C | 72% | 1013 hPa | 0 mm | - | 9 W/m² | - |
| 1788022372 | 18.89° C | 71% | 1013.4 hPa | 0 mm | - | 10 W/m² | - |
| 1788021763 | 19.44° C | 67% | 1013.2 hPa | 0 mm | - | 10 W/m² | - |
| 1788021155 | 20° C | 67% | 1013.3 hPa | 0 mm | - | 12 W/m² | - |
| 1788020547 | 20° C | 65% | 1013.2 hPa | 0 mm | - | 19 W/m² | - |
| 1788019940 | 20.56° C | 64% | 1013.2 hPa | 0 mm | - | 26 W/m² | - |
| 1788019331 | 20.56° C | 64% | 1013.3 hPa | 0 mm | - | 37 W/m² | - |
| 1788018724 | 20° C | 65% | 1013.6 hPa | 0 mm | - | 29 W/m² | - |
| 1788018115 | 20.56° C | 65% | 1013.4 hPa | 0 mm | - | 22 W/m² | - |
| 1788017508 | 20.56° C | 64% | 1013.4 hPa | 0 mm | - | 37 W/m² | - |
| 1788016892 | 20.56° C | 66% | 1013.6 hPa | 0 mm | - | 48 W/m² | - |
* Rain latest hour (hover to see other rain measurements)
** Current wind speed in m/s (hover to see current wind gust speed)